sensor_id;sensor_type;location;lat;lon;timestamp;P1;durP1;ratioP1;P2;durP2;ratioP2
48945;SDS011;34999;50.940;3.998;2023-07-20T00:01:53;5.47;;;3.67;;
48945;SDS011;34999;50.940;3.998;2023-07-20T00:04:21;6.33;;;3.80;;
48945;SDS011;34999;50.940;3.998;2023-07-20T00:06:50;9.27;;;3.83;;
48945;SDS011;34999;50.940;3.998;2023-07-20T00:09:18;7.40;;;4.20;;
48945;SDS011;34999;50.940;3.998;2023-07-20T00:11:48;5.60;;;3.73;;
48945;SDS011;34999;50.940;3.998;2023-07-20T00:14:18;5.50;;;3.70;;
48945;SDS011;34999;50.940;3.998;2023-07-20T00:16:47;6.93;;;4.13;;
48945;SDS011;34999;50.940;3.998;2023-07-20T00:19:23;5.67;;;4.00;;
48945;SDS011;34999;50.940;3.998;2023-07-20T00:21:53;7.63;;;4.30;;
48945;SDS011;34999;50.940;3.998;2023-07-20T00:24:21;11.07;;;4.57;;
48945;SDS011;34999;50.940;3.998;2023-07-20T00:26:50;7.40;;;4.47;;
48945;SDS011;34999;50.940;3.998;2023-07-20T00:29:19;7.77;;;4.23;;
48945;SDS011;34999;50.940;3.998;2023-07-20T00:31:47;6.73;;;5.30;;
48945;SDS011;34999;50.940;3.998;2023-07-20T00:34:17;8.40;;;5.37;;
48945;SDS011;34999;50.940;3.998;2023-07-20T00:36:47;12.67;;;5.63;;
48945;SDS011;34999;50.940;3.998;2023-07-20T00:39:15;6.40;;;5.27;;
48945;SDS011;34999;50.940;3.998;2023-07-20T00:41:44;9.33;;;5.20;;
48945;SDS011;34999;50.940;3.998;2023-07-20T00:44:12;8.73;;;5.43;;
48945;SDS011;34999;50.940;3.998;2023-07-20T00:46:40;12.63;;;6.13;;
48945;SDS011;34999;50.940;3.998;2023-07-20T00:49:10;10.47;;;5.97;;
48945;SDS011;34999;50.940;3.998;2023-07-20T00:51:39;15.00;;;5.80;;
48945;SDS011;34999;50.940;3.998;2023-07-20T00:54:09;13.40;;;5.60;;
48945;SDS011;34999;50.940;3.998;2023-07-20T00:56:38;10.53;;;5.87;;
48945;SDS011;34999;50.940;3.998;2023-07-20T00:59:07;10.47;;;5.80;;
48945;SDS011;34999;50.940;3.998;2023-07-20T01:01:35;12.07;;;6.93;;
48945;SDS011;34999;50.940;3.998;2023-07-20T01:04:04;11.77;;;6.00;;
48945;SDS011;34999;50.940;3.998;2023-07-20T01:06:34;15.20;;;6.67;;
48945;SDS011;34999;50.940;3.998;2023-07-20T01:09:13;12.03;;;6.60;;
48945;SDS011;34999;50.940;3.998;2023-07-20T01:11:49;11.30;;;7.13;;
48945;SDS011;34999;50.940;3.998;2023-07-20T01:14:22;16.50;;;6.67;;
48945;SDS011;34999;50.940;3.998;2023-07-20T01:16:51;16.60;;;7.43;;
48945;SDS011;34999;50.940;3.998;2023-07-20T01:19:20;15.57;;;6.83;;
48945;SDS011;34999;50.940;3.998;2023-07-20T01:21:50;11.90;;;6.97;;
48945;SDS011;34999;50.940;3.998;2023-07-20T01:24:33;14.37;;;7.50;;
48945;SDS011;34999;50.940;3.998;2023-07-20T01:30:43;10.23;;;6.73;;
48945;SDS011;34999;50.940;3.998;2023-07-20T01:33:20;22.10;;;7.70;;
48945;SDS011;34999;50.940;3.998;2023-07-20T01:35:50;12.90;;;7.07;;
48945;SDS011;34999;50.940;3.998;2023-07-20T01:38:21;11.03;;;7.13;;
48945;SDS011;34999;50.940;3.998;2023-07-20T01:40:50;15.50;;;7.57;;
48945;SDS011;34999;50.940;3.998;2023-07-20T01:43:19;17.73;;;7.40;;
48945;SDS011;34999;50.940;3.998;2023-07-20T01:45:47;11.30;;;7.53;;
48945;SDS011;34999;50.940;3.998;2023-07-20T01:48:16;17.13;;;8.23;;
48945;SDS011;34999;50.940;3.998;2023-07-20T01:50:45;15.13;;;7.77;;
48945;SDS011;34999;50.940;3.998;2023-07-20T01:53:14;13.40;;;7.80;;
48945;SDS011;34999;50.940;3.998;2023-07-20T01:55:42;15.47;;;7.87;;
48945;SDS011;34999;50.940;3.998;2023-07-20T01:58:11;10.70;;;7.00;;
48945;SDS011;34999;50.940;3.998;2023-07-20T02:00:39;14.40;;;8.10;;
48945;SDS011;34999;50.940;3.998;2023-07-20T02:03:08;11.03;;;8.07;;
48945;SDS011;34999;50.940;3.998;2023-07-20T02:05:38;17.57;;;7.97;;
48945;SDS011;34999;50.940;3.998;2023-07-20T02:08:08;14.27;;;7.63;;
48945;SDS011;34999;50.940;3.998;2023-07-20T02:10:37;16.17;;;8.60;;
48945;SDS011;34999;50.940;3.998;2023-07-20T02:13:05;15.23;;;8.73;;
48945;SDS011;34999;50.940;3.998;2023-07-20T02:15:34;18.33;;;9.30;;
48945;SDS011;34999;50.940;3.998;2023-07-20T02:18:02;17.90;;;7.97;;
48945;SDS011;34999;50.940;3.998;2023-07-20T02:20:31;11.57;;;8.03;;
48945;SDS011;34999;50.940;3.998;2023-07-20T02:22:59;17.13;;;9.03;;
48945;SDS011;34999;50.940;3.998;2023-07-20T02:25:29;16.93;;;9.03;;
48945;SDS011;34999;50.940;3.998;2023-07-20T02:27:57;22.30;;;9.73;;
48945;SDS011;34999;50.940;3.998;2023-07-20T02:30:25;17.90;;;9.73;;
48945;SDS011;34999;50.940;3.998;2023-07-20T02:32:55;17.83;;;9.97;;
48945;SDS011;34999;50.940;3.998;2023-07-20T02:35:25;20.10;;;10.40;;
48945;SDS011;34999;50.940;3.998;2023-07-20T02:37:53;17.90;;;9.57;;
48945;SDS011;34999;50.940;3.998;2023-07-20T02:40:22;20.33;;;11.00;;
48945;SDS011;34999;50.940;3.998;2023-07-20T02:42:51;16.80;;;10.00;;
48945;SDS011;34999;50.940;3.998;2023-07-20T02:45:20;18.47;;;10.27;;
48945;SDS011;34999;50.940;3.998;2023-07-20T02:47:48;19.47;;;10.13;;
48945;SDS011;34999;50.940;3.998;2023-07-20T02:50:16;22.13;;;10.60;;
48945;SDS011;34999;50.940;3.998;2023-07-20T02:52:45;23.50;;;11.87;;
48945;SDS011;34999;50.940;3.998;2023-07-20T02:55:13;16.90;;;10.70;;
48945;SDS011;34999;50.940;3.998;2023-07-20T02:57:42;23.90;;;11.70;;
48945;SDS011;34999;50.940;3.998;2023-07-20T03:00:12;19.63;;;11.27;;
48945;SDS011;34999;50.940;3.998;2023-07-20T03:02:43;19.67;;;9.87;;
48945;SDS011;34999;50.940;3.998;2023-07-20T03:05:13;21.43;;;10.63;;
48945;SDS011;34999;50.940;3.998;2023-07-20T03:07:43;21.83;;;10.87;;
48945;SDS011;34999;50.940;3.998;2023-07-20T03:10:12;22.03;;;11.40;;
48945;SDS011;34999;50.940;3.998;2023-07-20T03:12:40;19.47;;;11.63;;
48945;SDS011;34999;50.940;3.998;2023-07-20T03:15:09;16.10;;;10.90;;
48945;SDS011;34999;50.940;3.998;2023-07-20T03:17:39;19.87;;;10.97;;
48945;SDS011;34999;50.940;3.998;2023-07-20T03:20:08;16.90;;;10.53;;
48945;SDS011;34999;50.940;3.998;2023-07-20T03:22:39;16.63;;;10.73;;
48945;SDS011;34999;50.940;3.998;2023-07-20T03:25:08;18.03;;;10.33;;
48945;SDS011;34999;50.940;3.998;2023-07-20T03:27:36;20.50;;;12.13;;
48945;SDS011;34999;50.940;3.998;2023-07-20T03:30:05;22.07;;;11.47;;
48945;SDS011;34999;50.940;3.998;2023-07-20T03:32:36;17.10;;;10.90;;
48945;SDS011;34999;50.940;3.998;2023-07-20T03:35:06;16.53;;;11.07;;
48945;SDS011;34999;50.940;3.998;2023-07-20T03:37:35;18.80;;;11.47;;
48945;SDS011;34999;50.940;3.998;2023-07-20T03:40:05;19.60;;;11.10;;
48945;SDS011;34999;50.940;3.998;2023-07-20T03:42:34;21.23;;;11.33;;
48945;SDS011;34999;50.940;3.998;2023-07-20T03:45:05;20.53;;;11.40;;
48945;SDS011;34999;50.940;3.998;2023-07-20T03:47:34;16.37;;;10.57;;
48945;SDS011;34999;50.940;3.998;2023-07-20T03:50:03;17.10;;;11.07;;
48945;SDS011;34999;50.940;3.998;2023-07-20T03:52:33;20.53;;;12.10;;
48945;SDS011;34999;50.940;3.998;2023-07-20T03:55:01;19.13;;;11.23;;
48945;SDS011;34999;50.940;3.998;2023-07-20T03:57:30;16.00;;;10.90;;
48945;SDS011;34999;50.940;3.998;2023-07-20T03:59:59;17.33;;;10.93;;
48945;SDS011;34999;50.940;3.998;2023-07-20T04:02:28;20.83;;;10.73;;
48945;SDS011;34999;50.940;3.998;2023-07-20T04:04:57;18.27;;;11.33;;
48945;SDS011;34999;50.940;3.998;2023-07-20T04:07:25;16.93;;;10.33;;
48945;SDS011;34999;50.940;3.998;2023-07-20T04:09:55;21.30;;;10.63;;
48945;SDS011;34999;50.940;3.998;2023-07-20T04:12:23;17.37;;;10.97;;
48945;SDS011;34999;50.940;3.998;2023-07-20T04:14:52;17.13;;;10.80;;
48945;SDS011;34999;50.940;3.998;2023-07-20T04:17:20;14.57;;;10.67;;
48945;SDS011;34999;50.940;3.998;2023-07-20T04:19:48;20.73;;;10.67;;
48945;SDS011;34999;50.940;3.998;2023-07-20T04:22:17;17.73;;;10.77;;
48945;SDS011;34999;50.940;3.998;2023-07-20T04:24:46;21.93;;;11.93;;
48945;SDS011;34999;50.940;3.998;2023-07-20T04:27:16;17.67;;;11.13;;
48945;SDS011;34999;50.940;3.998;2023-07-20T04:29:44;14.87;;;10.13;;
48945;SDS011;34999;50.940;3.998;2023-07-20T04:32:12;14.20;;;10.23;;
48945;SDS011;34999;50.940;3.998;2023-07-20T04:34:41;15.83;;;10.17;;
48945;SDS011;34999;50.940;3.998;2023-07-20T04:37:09;14.67;;;11.00;;
48945;SDS011;34999;50.940;3.998;2023-07-20T04:39:38;17.63;;;10.90;;
48945;SDS011;34999;50.940;3.998;2023-07-20T04:42:06;14.17;;;10.10;;
48945;SDS011;34999;50.940;3.998;2023-07-20T04:44:36;14.93;;;10.07;;
48945;SDS011;34999;50.940;3.998;2023-07-20T04:47:04;14.67;;;10.80;;
48945;SDS011;34999;50.940;3.998;2023-07-20T04:49:33;15.13;;;10.30;;
48945;SDS011;34999;50.940;3.998;2023-07-20T04:52:01;14.77;;;10.20;;
48945;SDS011;34999;50.940;3.998;2023-07-20T04:54:30;12.50;;;9.13;;
48945;SDS011;34999;50.940;3.998;2023-07-20T04:56:58;15.53;;;10.70;;
48945;SDS011;34999;50.940;3.998;2023-07-20T04:59:26;15.97;;;10.60;;
48945;SDS011;34999;50.940;3.998;2023-07-20T05:01:56;16.20;;;10.13;;
48945;SDS011;34999;50.940;3.998;2023-07-20T05:04:25;23.77;;;10.87;;
48945;SDS011;34999;50.940;3.998;2023-07-20T05:07:03;20.57;;;10.27;;
48945;SDS011;34999;50.940;3.998;2023-07-20T05:09:33;14.33;;;9.67;;
48945;SDS011;34999;50.940;3.998;2023-07-20T05:12:01;13.93;;;9.90;;
48945;SDS011;34999;50.940;3.998;2023-07-20T05:14:30;19.03;;;10.67;;
48945;SDS011;34999;50.940;3.998;2023-07-20T05:17:00;18.00;;;10.90;;
48945;SDS011;34999;50.940;3.998;2023-07-20T05:19:28;15.83;;;10.77;;
48945;SDS011;34999;50.940;3.998;2023-07-20T05:21:57;13.90;;;10.30;;
48945;SDS011;34999;50.940;3.998;2023-07-20T05:24:26;16.67;;;10.90;;
48945;SDS011;34999;50.940;3.998;2023-07-20T05:26:57;14.77;;;10.30;;
48945;SDS011;34999;50.940;3.998;2023-07-20T05:29:26;15.37;;;10.17;;
48945;SDS011;34999;50.940;3.998;2023-07-20T05:31:54;15.60;;;11.10;;
48945;SDS011;34999;50.940;3.998;2023-07-20T05:34:24;13.97;;;9.07;;
48945;SDS011;34999;50.940;3.998;2023-07-20T05:36:52;17.10;;;10.03;;
48945;SDS011;34999;50.940;3.998;2023-07-20T05:39:20;18.60;;;10.47;;
48945;SDS011;34999;50.940;3.998;2023-07-20T05:41:49;14.63;;;9.93;;
48945;SDS011;34999;50.940;3.998;2023-07-20T05:44:17;16.20;;;10.67;;
48945;SDS011;34999;50.940;3.998;2023-07-20T05:46:45;13.80;;;10.33;;
48945;SDS011;34999;50.940;3.998;2023-07-20T05:49:24;18.40;;;10.30;;
48945;SDS011;34999;50.940;3.998;2023-07-20T05:51:54;18.87;;;11.03;;
48945;SDS011;34999;50.940;3.998;2023-07-20T05:54:23;16.00;;;9.77;;
48945;SDS011;34999;50.940;3.998;2023-07-20T05:56:52;12.83;;;10.00;;
48945;SDS011;34999;50.940;3.998;2023-07-20T05:59:20;16.07;;;10.40;;
48945;SDS011;34999;50.940;3.998;2023-07-20T06:01:50;12.57;;;9.00;;
48945;SDS011;34999;50.940;3.998;2023-07-20T06:04:18;16.73;;;10.47;;
48945;SDS011;34999;50.940;3.998;2023-07-20T06:06:49;13.63;;;9.83;;
48945;SDS011;34999;50.940;3.998;2023-07-20T06:09:17;14.07;;;9.47;;
48945;SDS011;34999;50.940;3.998;2023-07-20T06:11:45;12.20;;;9.43;;
48945;SDS011;34999;50.940;3.998;2023-07-20T06:14:13;13.03;;;9.77;;
48945;SDS011;34999;50.940;3.998;2023-07-20T06:16:42;15.27;;;10.17;;
48945;SDS011;34999;50.940;3.998;2023-07-20T06:19:11;13.30;;;9.30;;
48945;SDS011;34999;50.940;3.998;2023-07-20T06:21:40;12.63;;;8.20;;
48945;SDS011;34999;50.940;3.998;2023-07-20T06:24:10;15.30;;;8.70;;
48945;SDS011;34999;50.940;3.998;2023-07-20T06:26:38;12.50;;;8.10;;
48945;SDS011;34999;50.940;3.998;2023-07-20T06:29:07;9.40;;;8.27;;
48945;SDS011;34999;50.940;3.998;2023-07-20T06:31:36;9.93;;;7.47;;
48945;SDS011;34999;50.940;3.998;2023-07-20T06:34:05;9.60;;;7.47;;
48945;SDS011;34999;50.940;3.998;2023-07-20T06:36:33;7.63;;;6.83;;
48945;SDS011;34999;50.940;3.998;2023-07-20T06:39:03;7.53;;;5.93;;
48945;SDS011;34999;50.940;3.998;2023-07-20T06:41:36;7.67;;;5.73;;
48945;SDS011;34999;50.940;3.998;2023-07-20T06:44:07;5.40;;;5.00;;
48945;SDS011;34999;50.940;3.998;2023-07-20T06:46:35;4.83;;;4.53;;
48945;SDS011;34999;50.940;3.998;2023-07-20T06:49:05;9.87;;;5.43;;
48945;SDS011;34999;50.940;3.998;2023-07-20T06:51:36;5.20;;;4.77;;
48945;SDS011;34999;50.940;3.998;2023-07-20T06:54:05;4.40;;;4.17;;
48945;SDS011;34999;50.940;3.998;2023-07-20T06:56:35;4.33;;;2.87;;
48945;SDS011;34999;50.940;3.998;2023-07-20T06:59:10;3.80;;;3.10;;
48945;SDS011;34999;50.940;3.998;2023-07-20T07:01:38;3.80;;;3.50;;
48945;SDS011;34999;50.940;3.998;2023-07-20T07:04:07;5.90;;;3.90;;
48945;SDS011;34999;50.940;3.998;2023-07-20T07:06:36;2.90;;;2.70;;
48945;SDS011;34999;50.940;3.998;2023-07-20T07:09:04;1.70;;;1.60;;
48945;SDS011;34999;50.940;3.998;2023-07-20T07:11:37;2.00;;;1.90;;
48945;SDS011;34999;50.940;3.998;2023-07-20T07:14:06;2.83;;;1.87;;
48945;SDS011;34999;50.940;3.998;2023-07-20T07:16:34;2.40;;;2.30;;
48945;SDS011;34999;50.940;3.998;2023-07-20T07:19:05;2.00;;;1.90;;
48945;SDS011;34999;50.940;3.998;2023-07-20T07:21:33;2.40;;;2.30;;
48945;SDS011;34999;50.940;3.998;2023-07-20T07:24:03;1.93;;;1.67;;
48945;SDS011;34999;50.940;3.998;2023-07-20T07:26:33;1.30;;;1.20;;
48945;SDS011;34999;50.940;3.998;2023-07-20T07:29:03;1.63;;;1.40;;
48945;SDS011;34999;50.940;3.998;2023-07-20T07:31:33;4.07;;;2.03;;
48945;SDS011;34999;50.940;3.998;2023-07-20T07:34:03;2.40;;;2.20;;
48945;SDS011;34999;50.940;3.998;2023-07-20T07:36:31;1.80;;;1.70;;
48945;SDS011;34999;50.940;3.998;2023-07-20T07:39:00;1.98;;;1.88;;
48945;SDS011;34999;50.940;3.998;2023-07-20T07:41:48;1.45;;;1.45;;
48945;SDS011;34999;50.940;3.998;2023-07-20T07:44:19;1.40;;;1.40;;
48945;SDS011;34999;50.940;3.998;2023-07-20T07:46:48;1.40;;;1.30;;
48945;SDS011;34999;50.940;3.998;2023-07-20T07:49:16;2.40;;;2.20;;
48945;SDS011;34999;50.940;3.998;2023-07-20T07:51:47;1.58;;;1.50;;
48945;SDS011;34999;50.940;3.998;2023-07-20T07:54:15;1.00;;;1.00;;
48945;SDS011;34999;50.940;3.998;2023-07-20T07:56:44;1.10;;;1.10;;
48945;SDS011;34999;50.940;3.998;2023-07-20T07:59:15;4.40;;;1.88;;
48945;SDS011;34999;50.940;3.998;2023-07-20T08:01:45;1.70;;;1.60;;
48945;SDS011;34999;50.940;3.998;2023-07-20T08:04:13;2.00;;;1.90;;
48945;SDS011;34999;50.940;3.998;2023-07-20T08:06:41;1.83;;;1.73;;
48945;SDS011;34999;50.940;3.998;2023-07-20T08:09:10;1.58;;;1.50;;
48945;SDS011;34999;50.940;3.998;2023-07-20T08:11:38;1.65;;;1.63;;
48945;SDS011;34999;50.940;3.998;2023-07-20T08:14:09;1.70;;;1.60;;
48945;SDS011;34999;50.940;3.998;2023-07-20T08:16:37;2.72;;;2.25;;
48945;SDS011;34999;50.940;3.998;2023-07-20T08:19:07;2.38;;;2.03;;
48945;SDS011;34999;50.940;3.998;2023-07-20T08:21:35;4.20;;;2.17;;
48945;SDS011;34999;50.940;3.998;2023-07-20T08:24:04;3.75;;;2.13;;
48945;SDS011;34999;50.940;3.998;2023-07-20T08:26:33;2.33;;;2.22;;
48945;SDS011;34999;50.940;3.998;2023-07-20T08:29:02;2.20;;;2.10;;
48945;SDS011;34999;50.940;3.998;2023-07-20T08:31:30;2.27;;;2.07;;
48945;SDS011;34999;50.940;3.998;2023-07-20T08:33:59;3.33;;;2.20;;
48945;SDS011;34999;50.940;3.998;2023-07-20T08:36:39;1.70;;;1.70;;
48945;SDS011;34999;50.940;3.998;2023-07-20T08:39:08;1.60;;;1.60;;
48945;SDS011;34999;50.940;3.998;2023-07-20T08:41:36;2.58;;;1.70;;
48945;SDS011;34999;50.940;3.998;2023-07-20T08:44:05;1.20;;;1.10;;
48945;SDS011;34999;50.940;3.998;2023-07-20T08:46:35;1.65;;;1.50;;
48945;SDS011;34999;50.940;3.998;2023-07-20T08:49:04;1.50;;;1.40;;
48945;SDS011;34999;50.940;3.998;2023-07-20T08:51:33;1.45;;;1.35;;
48945;SDS011;34999;50.940;3.998;2023-07-20T08:54:05;1.85;;;0.90;;
48945;SDS011;34999;50.940;3.998;2023-07-20T08:56:35;1.58;;;1.25;;
48945;SDS011;34999;50.940;3.998;2023-07-20T08:59:05;1.30;;;1.30;;
48945;SDS011;34999;50.940;3.998;2023-07-20T09:01:36;2.55;;;1.30;;
48945;SDS011;34999;50.940;3.998;2023-07-20T09:04:07;1.85;;;1.65;;
48945;SDS011;34999;50.940;3.998;2023-07-20T09:06:35;1.17;;;1.10;;
48945;SDS011;34999;50.940;3.998;2023-07-20T09:09:05;1.33;;;1.30;;
48945;SDS011;34999;50.940;3.998;2023-07-20T09:11:34;1.48;;;1.13;;
48945;SDS011;34999;50.940;3.998;2023-07-20T09:14:03;1.10;;;1.10;;
48945;SDS011;34999;50.940;3.998;2023-07-20T09:16:32;3.75;;;1.25;;
48945;SDS011;34999;50.940;3.998;2023-07-20T09:19:14;2.05;;;1.30;;
48945;SDS011;34999;50.940;3.998;2023-07-20T09:21:47;1.48;;;1.38;;
48945;SDS011;34999;50.940;3.998;2023-07-20T09:24:18;2.15;;;1.42;;
48945;SDS011;34999;50.940;3.998;2023-07-20T09:26:49;2.45;;;1.38;;
48945;SDS011;34999;50.940;3.998;2023-07-20T09:29:17;1.30;;;1.30;;
48945;SDS011;34999;50.940;3.998;2023-07-20T09:31:58;1.45;;;1.42;;
48945;SDS011;34999;50.940;3.998;2023-07-20T09:34:28;2.20;;;1.70;;
48945;SDS011;34999;50.940;3.998;2023-07-20T09:37:01;1.65;;;1.55;;
48945;SDS011;34999;50.940;3.998;2023-07-20T09:39:32;1.70;;;1.60;;
48945;SDS011;34999;50.940;3.998;2023-07-20T09:42:29;1.60;;;1.50;;
48945;SDS011;34999;50.940;3.998;2023-07-20T09:45:01;2.53;;;1.40;;
48945;SDS011;34999;50.940;3.998;2023-07-20T09:47:29;1.63;;;1.63;;
48945;SDS011;34999;50.940;3.998;2023-07-20T09:49:59;1.70;;;1.70;;
48945;SDS011;34999;50.940;3.998;2023-07-20T09:52:31;1.50;;;1.40;;
48945;SDS011;34999;50.940;3.998;2023-07-20T09:55:04;1.40;;;1.40;;
48945;SDS011;34999;50.940;3.998;2023-07-20T09:57:34;1.63;;;1.52;;
48945;SDS011;34999;50.940;3.998;2023-07-20T10:00:04;1.77;;;1.60;;
48945;SDS011;34999;50.940;3.998;2023-07-20T10:02:43;3.03;;;1.52;;
48945;SDS011;34999;50.940;3.998;2023-07-20T10:05:13;1.70;;;1.70;;
48945;SDS011;34999;50.940;3.998;2023-07-20T10:07:43;1.75;;;1.75;;
48945;SDS011;34999;50.940;3.998;2023-07-20T10:10:16;1.63;;;1.60;;
48945;SDS011;34999;50.940;3.998;2023-07-20T10:12:47;1.95;;;1.85;;
48945;SDS011;34999;50.940;3.998;2023-07-20T10:15:18;1.83;;;1.70;;
48945;SDS011;34999;50.940;3.998;2023-07-20T10:17:54;1.65;;;1.50;;
48945;SDS011;34999;50.940;3.998;2023-07-20T10:20:27;1.90;;;1.75;;
48945;SDS011;34999;50.940;3.998;2023-07-20T10:22:58;3.33;;;1.63;;
48945;SDS011;34999;50.940;3.998;2023-07-20T10:25:28;1.35;;;1.25;;
48945;SDS011;34999;50.940;3.998;2023-07-20T10:27:58;1.27;;;1.27;;
48945;SDS011;34999;50.940;3.998;2023-07-20T10:30:28;1.42;;;1.40;;
48945;SDS011;34999;50.940;3.998;2023-07-20T10:33:01;2.25;;;1.40;;
48945;SDS011;34999;50.940;3.998;2023-07-20T10:35:30;1.63;;;1.40;;
48945;SDS011;34999;50.940;3.998;2023-07-20T10:38:02;1.33;;;1.30;;
48945;SDS011;34999;50.940;3.998;2023-07-20T10:40:33;1.35;;;1.35;;
48945;SDS011;34999;50.940;3.998;2023-07-20T10:43:06;2.15;;;1.30;;
48945;SDS011;34999;50.940;3.998;2023-07-20T10:45:36;1.45;;;1.40;;
48945;SDS011;34999;50.940;3.998;2023-07-20T10:48:12;1.38;;;1.38;;
48945;SDS011;34999;50.940;3.998;2023-07-20T10:50:43;1.30;;;1.30;;
48945;SDS011;34999;50.940;3.998;2023-07-20T10:53:12;1.52;;;1.50;;
48945;SDS011;34999;50.940;3.998;2023-07-20T10:55:43;1.70;;;1.60;;
48945;SDS011;34999;50.940;3.998;2023-07-20T10:58:13;1.80;;;1.70;;
48945;SDS011;34999;50.940;3.998;2023-07-20T11:00:55;1.42;;;1.42;;
48945;SDS011;34999;50.940;3.998;2023-07-20T11:03:29;1.90;;;1.80;;
48945;SDS011;34999;50.940;3.998;2023-07-20T11:09:07;1.55;;;1.55;;
48945;SDS011;34999;50.940;3.998;2023-07-20T11:11:40;1.65;;;1.55;;
48945;SDS011;34999;50.940;3.998;2023-07-20T11:14:09;1.92;;;1.67;;
48945;SDS011;34999;50.940;3.998;2023-07-20T11:16:48;1.40;;;1.40;;
48945;SDS011;34999;50.940;3.998;2023-07-20T11:19:17;3.28;;;1.60;;
48945;SDS011;34999;50.940;3.998;2023-07-20T11:21:53;1.73;;;1.63;;
48945;SDS011;34999;50.940;3.998;2023-07-20T11:24:30;1.50;;;1.50;;
48945;SDS011;34999;50.940;3.998;2023-07-20T11:27:01;1.63;;;1.30;;
48945;SDS011;34999;50.940;3.998;2023-07-20T11:29:29;1.85;;;1.75;;
48945;SDS011;34999;50.940;3.998;2023-07-20T11:32:00;1.38;;;1.38;;
48945;SDS011;34999;50.940;3.998;2023-07-20T11:34:31;1.65;;;1.55;;
48945;SDS011;34999;50.940;3.998;2023-07-20T11:37:00;2.25;;;1.90;;
48945;SDS011;34999;50.940;3.998;2023-07-20T11:39:33;1.58;;;1.58;;
48945;SDS011;34999;50.940;3.998;2023-07-20T11:42:04;2.72;;;1.65;;
48945;SDS011;34999;50.940;3.998;2023-07-20T11:44:33;1.90;;;1.80;;
48945;SDS011;34999;50.940;3.998;2023-07-20T11:47:02;2.20;;;2.00;;
48945;SDS011;34999;50.940;3.998;2023-07-20T11:49:34;1.63;;;1.60;;
48945;SDS011;34999;50.940;3.998;2023-07-20T11:52:04;1.93;;;1.67;;
48945;SDS011;34999;50.940;3.998;2023-07-20T11:54:34;1.93;;;1.83;;
48945;SDS011;34999;50.940;3.998;2023-07-20T11:57:04;1.97;;;1.83;;
48945;SDS011;34999;50.940;3.998;2023-07-20T11:59:33;2.20;;;1.70;;
48945;SDS011;34999;50.940;3.998;2023-07-20T12:02:01;1.93;;;1.70;;
48945;SDS011;34999;50.940;3.998;2023-07-20T12:04:31;2.13;;;1.70;;
48945;SDS011;34999;50.940;3.998;2023-07-20T12:06:59;1.43;;;1.43;;
48945;SDS011;34999;50.940;3.998;2023-07-20T12:09:28;3.43;;;1.60;;
48945;SDS011;34999;50.940;3.998;2023-07-20T12:12:18;5.70;;;1.60;;
48945;SDS011;34999;50.940;3.998;2023-07-20T12:14:47;1.50;;;1.50;;
48945;SDS011;34999;50.940;3.998;2023-07-20T12:17:15;2.20;;;1.40;;
48945;SDS011;34999;50.940;3.998;2023-07-20T12:19:44;1.70;;;1.70;;
48945;SDS011;34999;50.940;3.998;2023-07-20T12:22:13;3.43;;;1.60;;
48945;SDS011;34999;50.940;3.998;2023-07-20T12:24:41;3.00;;;1.70;;
48945;SDS011;34999;50.940;3.998;2023-07-20T12:27:12;1.63;;;1.53;;
48945;SDS011;34999;50.940;3.998;2023-07-20T12:29:46;1.50;;;1.50;;
48945;SDS011;34999;50.940;3.998;2023-07-20T12:32:14;2.70;;;1.57;;
48945;SDS011;34999;50.940;3.998;2023-07-20T12:34:43;1.93;;;1.73;;
48945;SDS011;34999;50.940;3.998;2023-07-20T12:37:11;1.93;;;1.83;;
48945;SDS011;34999;50.940;3.998;2023-07-20T12:39:39;3.80;;;1.93;;
48945;SDS011;34999;50.940;3.998;2023-07-20T12:42:12;4.40;;;2.00;;
48945;SDS011;34999;50.940;3.998;2023-07-20T12:44:43;2.50;;;2.40;;
48945;SDS011;34999;50.940;3.998;2023-07-20T12:47:13;2.90;;;2.70;;
48945;SDS011;34999;50.940;3.998;2023-07-20T12:49:41;3.43;;;2.67;;
48945;SDS011;34999;50.940;3.998;2023-07-20T12:52:13;3.10;;;2.90;;
48945;SDS011;34999;50.940;3.998;2023-07-20T12:54:41;2.60;;;2.50;;
48945;SDS011;34999;50.940;3.998;2023-07-20T12:57:09;3.07;;;2.87;;
48945;SDS011;34999;50.940;3.998;2023-07-20T12:59:38;2.80;;;2.70;;
48945;SDS011;34999;50.940;3.998;2023-07-20T13:02:07;3.60;;;3.30;;
48945;SDS011;34999;50.940;3.998;2023-07-20T13:04:37;3.77;;;3.47;;
48945;SDS011;34999;50.940;3.998;2023-07-20T13:07:09;3.20;;;3.10;;
48945;SDS011;34999;50.940;3.998;2023-07-20T13:09:41;3.80;;;3.60;;
48945;SDS011;34999;50.940;3.998;2023-07-20T13:12:10;4.00;;;3.67;;
48945;SDS011;34999;50.940;3.998;2023-07-20T13:14:38;5.30;;;3.77;;
48945;SDS011;34999;50.940;3.998;2023-07-20T13:17:07;3.67;;;3.37;;
48945;SDS011;34999;50.940;3.998;2023-07-20T13:19:38;3.00;;;2.90;;
48945;SDS011;34999;50.940;3.998;2023-07-20T13:22:06;2.87;;;2.67;;
48945;SDS011;34999;50.940;3.998;2023-07-20T13:24:35;2.77;;;2.57;;
48945;SDS011;34999;50.940;3.998;2023-07-20T13:27:03;2.30;;;2.20;;
48945;SDS011;34999;50.940;3.998;2023-07-20T13:29:32;1.73;;;1.60;;
48945;SDS011;34999;50.940;3.998;2023-07-20T13:32:02;1.70;;;1.60;;
48945;SDS011;34999;50.940;3.998;2023-07-20T13:34:33;1.93;;;1.80;;
48945;SDS011;34999;50.940;3.998;2023-07-20T13:37:07;1.30;;;1.30;;
48945;SDS011;34999;50.940;3.998;2023-07-20T13:39:39;1.50;;;1.50;;
48945;SDS011;34999;50.940;3.998;2023-07-20T13:42:08;1.23;;;1.20;;
48945;SDS011;34999;50.940;3.998;2023-07-20T13:44:38;1.10;;;1.10;;
48945;SDS011;34999;50.940;3.998;2023-07-20T13:47:06;0.90;;;0.90;;
48945;SDS011;34999;50.940;3.998;2023-07-20T13:49:37;1.53;;;1.23;;
48945;SDS011;34999;50.940;3.998;2023-07-20T13:52:14;1.20;;;1.20;;
48945;SDS011;34999;50.940;3.998;2023-07-20T13:54:46;1.00;;;1.00;;
48945;SDS011;34999;50.940;3.998;2023-07-20T13:57:20;1.43;;;1.30;;
48945;SDS011;34999;50.940;3.998;2023-07-20T13:59:48;1.43;;;1.33;;
48945;SDS011;34999;50.940;3.998;2023-07-20T14:02:17;2.07;;;1.10;;
48945;SDS011;34999;50.940;3.998;2023-07-20T14:04:49;2.40;;;1.20;;
48945;SDS011;34999;50.940;3.998;2023-07-20T14:07:38;1.40;;;1.40;;
48945;SDS011;34999;50.940;3.998;2023-07-20T14:10:07;1.10;;;1.10;;
48945;SDS011;34999;50.940;3.998;2023-07-20T14:12:39;1.60;;;1.50;;
48945;SDS011;34999;50.940;3.998;2023-07-20T14:15:07;1.50;;;1.40;;
48945;SDS011;34999;50.940;3.998;2023-07-20T14:17:37;1.50;;;1.40;;
48945;SDS011;34999;50.940;3.998;2023-07-20T14:20:06;1.50;;;1.40;;
48945;SDS011;34999;50.940;3.998;2023-07-20T14:22:39;1.47;;;1.40;;
48945;SDS011;34999;50.940;3.998;2023-07-20T14:25:08;1.30;;;1.30;;
48945;SDS011;34999;50.940;3.998;2023-07-20T14:27:36;1.50;;;1.40;;
48945;SDS011;34999;50.940;3.998;2023-07-20T14:30:05;1.50;;;1.50;;
48945;SDS011;34999;50.940;3.998;2023-07-20T14:32:35;1.50;;;1.50;;
48945;SDS011;34999;50.940;3.998;2023-07-20T14:35:05;1.73;;;1.50;;
48945;SDS011;34999;50.940;3.998;2023-07-20T14:37:36;1.37;;;1.30;;
48945;SDS011;34999;50.940;3.998;2023-07-20T14:40:07;1.80;;;1.70;;
48945;SDS011;34999;50.940;3.998;2023-07-20T14:42:36;1.80;;;1.80;;
48945;SDS011;34999;50.940;3.998;2023-07-20T14:45:05;1.70;;;1.70;;
48945;SDS011;34999;50.940;3.998;2023-07-20T14:47:35;2.33;;;2.10;;
48945;SDS011;34999;50.940;3.998;2023-07-20T14:50:05;1.70;;;1.50;;
48945;SDS011;34999;50.940;3.998;2023-07-20T14:52:34;1.70;;;1.70;;
48945;SDS011;34999;50.940;3.998;2023-07-20T14:55:15;1.53;;;1.53;;
48945;SDS011;34999;50.940;3.998;2023-07-20T14:57:45;2.17;;;2.07;;
48945;SDS011;34999;50.940;3.998;2023-07-20T15:00:15;3.53;;;2.27;;
48945;SDS011;34999;50.940;3.998;2023-07-20T15:02:43;2.20;;;2.10;;
48945;SDS011;34999;50.940;3.998;2023-07-20T15:05:12;3.00;;;2.90;;